createdAt,value
2018-12-11T00:00:42.780Z,6.00
2018-12-11T00:03:21.857Z,5.53
2018-12-11T00:06:01.583Z,4.70
2018-12-11T00:08:39.523Z,4.87
2018-12-11T00:11:21.731Z,4.57
2018-12-11T00:13:58.498Z,4.97
2018-12-11T00:16:39.767Z,4.30
2018-12-11T00:19:14.605Z,4.80
2018-12-11T00:21:58.495Z,4.87
2018-12-11T00:24:33.000Z,5.10
2018-12-11T00:27:08.162Z,5.60
2018-12-11T00:29:45.361Z,5.20
2018-12-11T00:32:22.753Z,5.83
2018-12-11T00:35:02.372Z,5.87
2018-12-11T00:37:39.011Z,5.63
2018-12-11T00:40:23.789Z,5.07
2018-12-11T00:43:06.063Z,4.73
2018-12-11T00:45:42.854Z,4.93
2018-12-11T00:48:20.082Z,4.87
2018-12-11T00:54:02.911Z,5.00
2018-12-11T00:56:39.926Z,5.20
2018-12-11T00:59:16.327Z,5.33
2018-12-11T01:01:59.155Z,4.77
2018-12-11T01:04:33.918Z,5.57
2018-12-11T01:07:09.159Z,4.97
2018-12-11T01:09:56.955Z,4.90
2018-12-11T01:12:34.354Z,5.70
2018-12-11T01:15:14.249Z,5.13
2018-12-11T01:17:52.434Z,4.80
2018-12-11T01:20:27.147Z,6.00
2018-12-11T01:23:04.670Z,4.83
2018-12-11T01:25:39.240Z,5.53
2018-12-11T01:28:17.349Z,5.23
2018-12-11T01:30:58.609Z,5.93
2018-12-11T01:33:33.886Z,4.83
2018-12-11T01:36:09.077Z,4.87
2018-12-11T01:38:45.846Z,4.03
2018-12-11T01:41:28.412Z,4.70
2018-12-11T01:44:10.275Z,3.63
2018-12-11T01:46:45.940Z,3.87
2018-12-11T01:49:20.960Z,4.17
2018-12-11T01:52:00.869Z,4.00
2018-12-11T01:54:40.658Z,4.20
2018-12-11T01:57:18.801Z,3.80
2018-12-11T01:59:58.531Z,5.03
2018-12-11T02:02:35.398Z,4.60
2018-12-11T02:08:20.421Z,4.00
2018-12-11T02:10:57.752Z,4.13
2018-12-11T02:13:35.749Z,3.57
2018-12-11T02:16:13.125Z,3.93
2018-12-11T02:18:52.789Z,4.13
2018-12-11T02:21:33.394Z,3.77
2018-12-11T02:24:12.086Z,3.87
2018-12-11T02:26:55.153Z,3.97
2018-12-11T02:29:30.681Z,4.57
2018-12-11T02:32:06.604Z,3.43
2018-12-11T02:34:43.438Z,3.63
2018-12-11T02:37:24.560Z,3.23
2018-12-11T02:40:02.944Z,3.30
2018-12-11T02:42:40.752Z,4.13
2018-12-11T02:45:17.384Z,4.03
2018-12-11T02:47:55.150Z,3.67
2018-12-11T02:50:33.175Z,3.97
2018-12-11T02:53:12.382Z,4.23
2018-12-11T02:55:53.297Z,4.00
2018-12-11T02:58:36.430Z,4.00
2018-12-11T03:01:24.505Z,4.17
2018-12-11T03:03:58.677Z,4.37
2018-12-11T03:06:35.153Z,4.07
2018-12-11T03:09:10.464Z,4.57
2018-12-11T03:11:47.228Z,4.20
2018-12-11T03:14:28.345Z,5.37
2018-12-11T03:17:06.899Z,3.30
2018-12-11T03:19:51.730Z,3.80
2018-12-11T03:22:34.632Z,3.60
2018-12-11T03:25:11.553Z,4.50
2018-12-11T03:27:55.947Z,3.83
2018-12-11T03:30:32.897Z,3.50
2018-12-11T03:36:17.359Z,3.83
2018-12-11T03:38:50.211Z,4.23
2018-12-11T03:41:28.545Z,4.47
2018-12-11T03:44:09.764Z,4.50
2018-12-11T03:46:45.446Z,4.20
2018-12-11T03:49:30.374Z,4.07
2018-12-11T03:52:06.197Z,4.13
2018-12-11T03:54:42.661Z,4.13
2018-12-11T03:57:21.757Z,4.20
2018-12-11T03:59:55.320Z,4.40
2018-12-11T04:02:37.641Z,4.97
2018-12-11T04:05:21.252Z,3.70
2018-12-11T04:07:56.346Z,4.30
2018-12-11T04:10:31.591Z,3.90
2018-12-11T04:13:08.416Z,3.80
2018-12-11T04:15:45.654Z,3.87
2018-12-11T04:18:20.693Z,4.07
2018-12-11T04:20:59.790Z,3.83
2018-12-11T04:23:34.464Z,4.03
2018-12-11T04:26:09.415Z,3.67
2018-12-11T04:28:51.938Z,4.23
2018-12-11T04:31:27.904Z,4.27
2018-12-11T04:34:07.045Z,3.90
2018-12-11T04:36:44.509Z,3.67
2018-12-11T04:39:25.262Z,4.10
2018-12-11T04:42:09.379Z,3.20
2018-12-11T04:44:47.591Z,4.27
2018-12-11T04:47:22.099Z,3.73
2018-12-11T04:50:01.075Z,4.53
2018-12-11T04:52:35.621Z,4.13
2018-12-11T04:55:11.956Z,4.60
2018-12-11T04:57:46.810Z,3.23
2018-12-11T05:00:27.678Z,3.37
2018-12-11T05:03:03.091Z,4.20
2018-12-11T05:05:38.376Z,4.10
2018-12-11T05:08:19.231Z,3.73
2018-12-11T05:10:57.017Z,3.87
2018-12-11T05:13:31.551Z,4.30
2018-12-11T05:16:11.164Z,4.00
2018-12-11T05:18:52.490Z,4.20
2018-12-11T05:21:26.851Z,4.10
2018-12-11T05:24:06.938Z,4.40
2018-12-11T05:26:45.468Z,4.43
2018-12-11T05:29:26.087Z,4.33
2018-12-11T05:32:01.026Z,3.97
2018-12-11T05:34:37.781Z,4.50
2018-12-11T05:37:18.876Z,4.17
2018-12-11T05:39:54.260Z,3.97
2018-12-11T05:42:29.050Z,4.20
2018-12-11T05:45:08.303Z,3.50
2018-12-11T05:47:45.942Z,3.07
2018-12-11T05:50:23.809Z,3.93
2018-12-11T05:52:57.328Z,3.50
2018-12-11T05:55:37.317Z,3.70
2018-12-11T05:58:14.960Z,3.63
2018-12-11T06:00:51.761Z,4.03
2018-12-11T06:03:27.450Z,3.70
2018-12-11T06:06:04.432Z,4.33
2018-12-11T06:08:38.805Z,3.70
2018-12-11T06:11:13.440Z,3.77
2018-12-11T06:13:51.085Z,3.63
2018-12-11T06:16:29.917Z,3.40
2018-12-11T06:19:04.969Z,3.00
2018-12-11T06:21:40.332Z,2.77
2018-12-11T06:24:18.265Z,3.53
2018-12-11T06:26:52.562Z,2.80
2018-12-11T06:29:27.129Z,2.83
2018-12-11T06:32:04.610Z,3.07
2018-12-11T06:34:39.123Z,3.27
2018-12-11T06:37:16.008Z,2.87
2018-12-11T06:39:56.206Z,3.70
2018-12-11T06:42:36.851Z,2.80
2018-12-11T06:45:13.726Z,2.47
2018-12-11T06:47:55.986Z,2.80
2018-12-11T06:50:33.519Z,2.80
2018-12-11T06:53:08.988Z,3.60
2018-12-11T07:06:03.589Z,2.67
2018-12-11T07:08:39.862Z,2.70
2018-12-11T07:11:16.868Z,2.60
2018-12-11T07:13:54.569Z,2.93
2018-12-11T07:16:30.330Z,2.73
2018-12-11T07:19:05.810Z,2.17
2018-12-11T07:21:45.774Z,3.10
2018-12-11T07:24:24.565Z,2.57
2018-12-11T07:26:57.738Z,2.67
2018-12-11T07:29:30.724Z,3.00
2018-12-11T07:32:09.057Z,2.50
2018-12-11T07:34:43.346Z,2.37
2018-12-11T07:37:18.384Z,2.30
2018-12-11T07:39:51.877Z,2.77
2018-12-11T07:42:24.745Z,2.77
2018-12-11T07:44:58.995Z,3.00
2018-12-11T07:47:46.736Z,3.03
2018-12-11T07:50:22.241Z,2.90
2018-12-11T07:52:55.363Z,2.73
2018-12-11T07:55:30.887Z,3.00
2018-12-11T07:58:04.226Z,3.00
2018-12-11T08:00:39.508Z,3.03
2018-12-11T08:03:14.170Z,3.33
2018-12-11T08:05:47.844Z,3.20
2018-12-11T08:08:23.595Z,3.30
2018-12-11T08:10:56.763Z,3.80
2018-12-11T08:13:29.759Z,3.60
2018-12-11T08:16:02.892Z,3.37
2018-12-11T08:18:36.094Z,3.60
2018-12-11T08:24:20.979Z,3.77
2018-12-11T08:26:54.706Z,2.60
2018-12-11T08:29:30.944Z,3.03
2018-12-11T08:32:06.252Z,3.57
2018-12-11T08:34:39.768Z,2.87
2018-12-11T08:37:15.346Z,3.20
2018-12-11T08:40:03.077Z,2.90
2018-12-11T08:42:39.462Z,2.73
2018-12-11T08:45:21.642Z,3.20
2018-12-11T08:48:01.669Z,3.40
2018-12-11T08:50:34.440Z,2.80
2018-12-11T08:53:07.949Z,3.23
2018-12-11T08:55:43.203Z,2.47
2018-12-11T08:58:16.044Z,2.80
2018-12-11T09:00:53.358Z,3.27
2018-12-11T09:03:34.498Z,3.00
2018-12-11T09:06:09.636Z,3.10
2018-12-11T09:08:44.695Z,3.70
2018-12-11T09:11:17.360Z,3.00
2018-12-11T09:13:49.811Z,2.90
2018-12-11T09:16:23.913Z,3.63
2018-12-11T09:18:57.840Z,3.13
2018-12-11T09:21:32.775Z,3.10
2018-12-11T09:24:07.876Z,3.40
2018-12-11T09:26:42.139Z,2.97
2018-12-11T09:29:16.477Z,3.17
2018-12-11T09:31:51.991Z,3.03
2018-12-11T09:34:26.055Z,3.40
2018-12-11T09:37:03.300Z,3.03
2018-12-11T09:39:41.086Z,2.73
2018-12-11T09:42:15.997Z,2.60
2018-12-11T09:44:49.725Z,3.13
2018-12-11T09:47:25.698Z,3.20
2018-12-11T09:50:00.110Z,2.77
2018-12-11T09:52:33.435Z,3.60
2018-12-11T09:55:08.695Z,2.67
2018-12-11T09:57:43.755Z,3.07
2018-12-11T10:00:27.276Z,2.63
2018-12-11T10:03:02.929Z,3.17
2018-12-11T10:05:35.713Z,2.70
2018-12-11T10:08:08.874Z,2.73
2018-12-11T10:10:41.660Z,2.70
2018-12-11T10:13:14.732Z,2.70
2018-12-11T10:15:47.270Z,2.60
2018-12-11T10:20:55.308Z,2.83
2018-12-11T10:23:31.962Z,2.80
2018-12-11T10:26:06.264Z,3.00
2018-12-11T10:28:39.289Z,2.90
2018-12-11T10:31:16.886Z,2.67
2018-12-11T10:33:49.737Z,2.90
2018-12-11T10:36:26.114Z,2.97
2018-12-11T10:39:04.112Z,2.53
2018-12-11T10:41:41.697Z,2.60
2018-12-11T10:44:15.357Z,2.70
2018-12-11T10:49:55.945Z,2.87
2018-12-11T11:05:08.027Z,2.90
2018-12-11T11:07:40.697Z,2.20
2018-12-11T11:19:32.444Z,2.20
2018-12-11T11:25:16.196Z,2.50
2018-12-11T11:31:03.881Z,2.13
2018-12-11T11:33:37.036Z,2.27
2018-12-11T11:36:13.715Z,1.97
2018-12-11T11:38:49.194Z,2.63
2018-12-11T11:41:22.150Z,2.57
2018-12-11T11:43:57.924Z,2.70
2018-12-11T11:46:31.811Z,2.73
2018-12-11T11:49:06.182Z,2.50
2018-12-11T11:51:41.601Z,2.57
2018-12-11T11:54:14.457Z,2.57
2018-12-11T11:56:57.881Z,2.87
2018-12-11T11:59:36.788Z,2.63
2018-12-11T12:02:09.890Z,2.63
2018-12-11T12:04:42.743Z,2.50
2018-12-11T12:07:16.168Z,2.57
2018-12-11T12:09:49.229Z,2.40
2018-12-11T12:12:24.795Z,2.50
2018-12-11T12:15:01.944Z,2.67
2018-12-11T12:17:47.357Z,3.17
2018-12-11T12:20:23.009Z,2.10
2018-12-11T12:23:02.254Z,3.00
2018-12-11T12:25:39.174Z,2.30
2018-12-11T12:28:12.382Z,3.03
2018-12-11T12:30:46.219Z,2.30
2018-12-11T12:33:18.907Z,2.83
2018-12-11T12:35:52.188Z,2.93
2018-12-11T12:38:27.834Z,2.30
2018-12-11T12:41:00.632Z,3.00
2018-12-11T12:43:34.811Z,2.53
2018-12-11T12:46:11.164Z,2.70
2018-12-11T12:48:46.603Z,2.40
2018-12-11T12:51:19.687Z,2.23
2018-12-11T12:53:57.216Z,2.57
2018-12-11T12:56:32.636Z,2.60
2018-12-11T12:59:08.758Z,2.50
2018-12-11T13:01:52.544Z,2.83
2018-12-11T13:04:24.969Z,2.10
2018-12-11T13:06:58.477Z,2.50
2018-12-11T13:09:44.179Z,2.30
2018-12-11T13:12:19.078Z,3.67
2018-12-11T13:14:51.807Z,2.80
2018-12-11T13:17:25.518Z,3.43
2018-12-11T13:19:58.192Z,2.83
2018-12-11T13:22:33.168Z,3.30
2018-12-11T13:25:06.714Z,3.43
2018-12-11T13:27:43.640Z,3.07
2018-12-11T13:30:18.843Z,2.70
2018-12-11T13:32:54.210Z,2.77
2018-12-11T13:35:27.069Z,2.47
2018-12-11T13:38:05.611Z,2.97
2018-12-11T13:40:46.854Z,2.13
2018-12-11T13:43:19.786Z,2.40
2018-12-11T13:45:55.276Z,2.10
2018-12-11T13:48:37.484Z,2.60
2018-12-11T13:51:13.067Z,2.70
2018-12-11T13:53:48.571Z,2.00
2018-12-11T13:56:21.764Z,2.50
2018-12-11T13:58:57.115Z,2.60
2018-12-11T14:01:30.365Z,2.27
2018-12-11T14:04:04.288Z,2.40
2018-12-11T14:06:42.765Z,2.10
2018-12-11T14:09:23.163Z,2.60
2018-12-11T14:12:01.859Z,2.30
2018-12-11T14:14:38.731Z,2.60
2018-12-11T14:17:16.494Z,2.87
2018-12-11T14:19:49.755Z,2.63
2018-12-11T14:22:25.085Z,3.13
2018-12-11T14:25:00.292Z,2.73
2018-12-11T14:27:37.091Z,2.43
2018-12-11T14:30:12.298Z,3.00
2018-12-11T14:32:45.240Z,2.50
2018-12-11T14:35:18.606Z,2.47
2018-12-11T14:37:54.996Z,2.30
2018-12-11T14:40:30.235Z,2.67
2018-12-11T14:43:04.312Z,2.87
2018-12-11T14:45:39.273Z,2.80
2018-12-11T14:48:15.156Z,2.97
2018-12-11T14:50:47.830Z,2.90
2018-12-11T14:53:27.374Z,3.43
2018-12-11T14:56:06.404Z,3.93
2018-12-11T14:58:42.013Z,3.30
2018-12-11T15:01:17.849Z,3.40
2018-12-11T15:03:50.437Z,3.60
2018-12-11T15:06:23.798Z,3.03
2018-12-11T15:09:03.203Z,3.63
2018-12-11T15:11:42.611Z,3.23
2018-12-11T15:14:17.638Z,2.87
2018-12-11T15:16:50.217Z,3.30
2018-12-11T15:19:24.024Z,3.20
2018-12-11T15:21:59.040Z,3.73
2018-12-11T15:24:31.955Z,3.47
2018-12-11T15:27:07.341Z,3.30
2018-12-11T15:29:42.847Z,3.47
2018-12-11T15:32:20.370Z,3.47
2018-12-11T15:34:56.079Z,3.33
2018-12-11T15:37:29.354Z,3.10
2018-12-11T15:40:07.198Z,3.30
2018-12-11T15:42:52.241Z,3.07
2018-12-11T15:45:29.317Z,4.00
2018-12-11T15:48:02.945Z,3.40
2018-12-11T15:50:35.380Z,3.50
2018-12-11T15:53:10.134Z,3.77
2018-12-11T15:55:45.334Z,2.97
2018-12-11T15:58:24.917Z,3.20
2018-12-11T16:00:55.326Z,3.67
2018-12-11T16:03:34.646Z,3.07
2018-12-11T16:06:09.694Z,3.00
2018-12-11T16:08:44.653Z,3.23
2018-12-11T16:11:19.674Z,3.63
2018-12-11T16:13:53.382Z,3.43
2018-12-11T16:16:27.888Z,3.10
2018-12-11T16:19:06.257Z,3.10
2018-12-11T16:21:43.274Z,3.07
2018-12-11T16:24:16.216Z,3.97
2018-12-11T16:26:54.678Z,2.80
2018-12-11T16:29:27.821Z,3.20
2018-12-11T16:32:03.394Z,3.17
2018-12-11T16:34:43.500Z,2.83
2018-12-11T16:37:21.435Z,3.03
2018-12-11T16:39:57.002Z,3.43
2018-12-11T16:42:32.061Z,3.93
2018-12-11T16:45:07.543Z,4.53
2018-12-11T16:47:40.294Z,3.83
2018-12-11T16:50:15.046Z,3.13
2018-12-11T16:52:51.946Z,3.30
2018-12-11T16:55:27.224Z,3.37
2018-12-11T16:58:03.704Z,3.30
2018-12-11T17:00:39.260Z,3.20
2018-12-11T17:03:11.885Z,3.00
2018-12-11T17:05:47.448Z,4.30
2018-12-11T17:08:24.696Z,3.63
2018-12-11T17:10:57.728Z,4.73
2018-12-11T17:13:35.459Z,3.30
2018-12-11T17:16:10.969Z,7.33
2018-12-11T17:18:44.058Z,6.53
2018-12-11T17:24:25.371Z,4.43
2018-12-11T17:26:59.661Z,3.77
2018-12-11T17:29:32.769Z,3.43
2018-12-11T17:32:07.679Z,3.37
2018-12-11T17:34:40.521Z,3.63
2018-12-11T17:37:16.017Z,4.13
2018-12-11T17:39:50.328Z,3.50
2018-12-11T17:42:23.997Z,4.10
2018-12-11T17:44:56.475Z,3.80
2018-12-11T17:47:29.020Z,3.67
2018-12-11T17:50:04.259Z,3.40
2018-12-11T17:52:39.385Z,3.90
2018-12-11T17:55:14.406Z,4.30
2018-12-11T17:57:51.433Z,3.87
2018-12-11T18:00:26.823Z,3.80
2018-12-11T18:03:01.285Z,4.10
2018-12-11T18:05:34.987Z,3.70
2018-12-11T18:08:07.965Z,3.73
2018-12-11T18:10:43.559Z,4.10
2018-12-11T18:13:24.851Z,4.07
2018-12-11T18:16:00.236Z,3.67
2018-12-11T18:18:35.785Z,3.60
2018-12-11T18:21:10.800Z,4.30
2018-12-11T18:23:43.682Z,4.10
2018-12-11T18:26:19.409Z,5.10
2018-12-11T18:28:56.060Z,6.33
2018-12-11T18:31:33.748Z,4.83
2018-12-11T18:34:11.294Z,5.20
2018-12-11T18:36:48.215Z,4.20
2018-12-11T18:39:27.411Z,4.67
2018-12-11T18:42:06.383Z,4.33
2018-12-11T18:44:40.732Z,5.30
2018-12-11T18:47:17.721Z,4.83
2018-12-11T18:49:57.414Z,4.80
2018-12-11T18:52:38.859Z,4.83
2018-12-11T18:55:15.778Z,4.90
2018-12-11T18:57:56.796Z,5.13
2018-12-11T19:00:33.567Z,4.53
2018-12-11T19:03:09.311Z,5.63
2018-12-11T19:05:44.975Z,5.73
2018-12-11T19:08:18.950Z,5.30
2018-12-11T19:10:57.305Z,6.30
2018-12-11T19:13:45.388Z,6.33
2018-12-11T19:16:19.621Z,5.90
2018-12-11T19:18:56.296Z,6.17
2018-12-11T19:21:43.326Z,5.67
2018-12-11T19:24:23.382Z,5.90
2018-12-11T19:26:58.713Z,6.70
2018-12-11T19:29:38.555Z,5.60
2018-12-11T19:32:17.243Z,6.90
2018-12-11T19:34:55.708Z,6.23
2018-12-11T19:37:30.887Z,7.60
2018-12-11T19:40:08.005Z,7.00
2018-12-11T19:42:44.867Z,6.80
2018-12-11T19:45:19.991Z,7.63
2018-12-11T19:47:56.251Z,6.83
2018-12-11T19:50:33.855Z,7.33
2018-12-11T19:53:11.468Z,7.67
2018-12-11T19:55:47.053Z,7.63
2018-12-11T19:58:22.800Z,7.13
2018-12-11T20:01:00.202Z,8.73
2018-12-11T20:03:39.132Z,8.13
2018-12-11T20:06:15.174Z,7.87
2018-12-11T20:08:52.461Z,8.30
2018-12-11T20:11:29.631Z,8.80
2018-12-11T20:14:10.938Z,7.83
2018-12-11T20:16:46.998Z,9.43
2018-12-11T20:19:26.135Z,8.27
2018-12-11T20:22:03.926Z,9.50
2018-12-11T20:24:41.287Z,9.50
2018-12-11T20:27:18.786Z,8.80
2018-12-11T20:29:55.325Z,9.60
2018-12-11T20:32:32.739Z,9.03
2018-12-11T20:35:10.645Z,9.17
2018-12-11T20:37:45.866Z,9.17
2018-12-11T20:40:23.181Z,8.87
2018-12-11T20:43:02.102Z,10.07
2018-12-11T20:45:39.829Z,8.80
2018-12-11T20:48:22.519Z,8.97
2018-12-11T20:50:59.502Z,8.93
2018-12-11T20:53:37.560Z,9.23
2018-12-11T20:56:18.965Z,8.90
2018-12-11T20:58:55.784Z,9.73
2018-12-11T21:01:37.095Z,9.67
2018-12-11T21:04:12.002Z,9.30
2018-12-11T21:06:49.659Z,9.53
2018-12-11T21:09:25.194Z,8.57
2018-12-11T21:12:00.097Z,8.80
2018-12-11T21:14:38.612Z,7.93
2018-12-11T21:17:14.391Z,8.07
2018-12-11T21:19:49.622Z,8.23
2018-12-11T21:22:25.671Z,8.40
2018-12-11T21:25:01.073Z,10.23
2018-12-11T21:27:43.222Z,10.20
2018-12-11T21:30:18.216Z,8.30
2018-12-11T21:32:53.376Z,7.87
2018-12-11T21:35:28.717Z,7.53
2018-12-11T21:38:12.475Z,8.30
2018-12-11T21:40:49.420Z,9.63
2018-12-11T21:43:24.965Z,9.20
2018-12-11T21:46:00.325Z,8.87
2018-12-11T21:48:35.685Z,9.80
2018-12-11T21:51:15.104Z,10.00
2018-12-11T21:53:51.468Z,9.47
2018-12-11T21:56:31.025Z,9.77
2018-12-11T21:59:09.791Z,12.23
2018-12-11T22:01:47.727Z,11.87
2018-12-11T22:04:23.878Z,12.80
2018-12-11T22:06:58.671Z,13.70
2018-12-11T22:09:47.317Z,11.60
2018-12-11T22:12:24.642Z,9.67
2018-12-11T22:15:01.779Z,9.00
2018-12-11T22:17:41.099Z,8.83
2018-12-11T22:20:26.064Z,9.53
2018-12-11T22:23:01.674Z,8.33
2018-12-11T22:25:46.082Z,9.20
2018-12-11T22:31:28.942Z,8.10
2018-12-11T22:34:12.064Z,9.17
2018-12-11T22:36:49.053Z,9.20
2018-12-11T22:39:25.270Z,9.47
2018-12-11T22:42:02.159Z,8.90
2018-12-11T22:44:43.713Z,9.00
2018-12-11T22:47:23.132Z,8.23
2018-12-11T22:50:00.656Z,7.30
2018-12-11T22:52:36.690Z,8.27
2018-12-11T22:55:12.182Z,8.50
2018-12-11T22:57:45.000Z,9.00
2018-12-11T23:00:18.292Z,8.37
2018-12-11T23:02:54.038Z,9.13
2018-12-11T23:05:29.646Z,9.33
2018-12-11T23:08:05.825Z,8.97
2018-12-11T23:10:41.520Z,10.23
2018-12-11T23:13:22.991Z,9.23
2018-12-11T23:16:00.644Z,10.33
2018-12-11T23:18:35.488Z,9.63
2018-12-11T23:21:17.705Z,9.27
2018-12-11T23:23:55.108Z,9.87
2018-12-11T23:26:34.708Z,8.90
2018-12-11T23:29:12.511Z,9.00
2018-12-11T23:31:47.694Z,9.77
2018-12-11T23:34:29.063Z,9.70
2018-12-11T23:37:04.022Z,8.93
2018-12-11T23:39:40.513Z,9.17
2018-12-11T23:42:16.471Z,9.13
2018-12-11T23:44:56.181Z,10.77
2018-12-11T23:47:30.296Z,10.10
2018-12-11T23:50:08.913Z,10.17
2018-12-11T23:52:44.687Z,10.87
2018-12-11T23:55:22.200Z,10.10
2018-12-11T23:57:59.404Z,10.00
